»·PEaware :: N54073 KOLM-S50

N54073 :: KOLM-S50

FLIGHT INFORMATION

Flight Status: Arrived
Operator: Privately registered:
United States
More flights under this callsign
Pilot: Anonymous 27411 (27411)
Aircraft: BEECH AIRCRAFT BARON
(BE58)
More flights by this aircraft type
Origin: KOLM Olympia
United States
Destination: S50 Auburn Mun
United States
More flights between these airports :: More routes between these airports
Route: YELM5 FESAS ORTIN
File this flight plan on PilotEdge
Remarks: I'm just trying out some new scenery add on. thank you
Altitude:
(Current/Filed)
3,000ft
Speed:
(Current/Filed)
175kts
Departed: 29-Dec-21 06:43 PM
Arrived: 29-Dec-21 07:14 PM
Distance/Time
Traveled:
35nm/0:31
Distance/Time
To Go:
Arrived

Flight Plot

Page will automatically refresh every two minutes.

Flight plan parsing failed; only flown route is shown


Map Options




Map Legend


Flown Route
Filed Route
Departure Airport
Arrival Airport
Navaid (VOR, NDB)
Fix

Horizontal Profiles

Position Reports

Time Latitude Longitude Heading Altitude Ground
Speed
29-Dec-21 18:27 46.973439 -122.896631 324 200ft 0kts
29-Dec-21 18:28 46.973443 -122.896634 325 200ft 0kts
29-Dec-21 18:29 46.973446 -122.896638 325 200ft 0kts
29-Dec-21 18:29 46.973449 -122.896641 325 200ft 0kts
29-Dec-21 18:30 46.973453 -122.896645 325 200ft 0kts
29-Dec-21 18:31 46.973456 -122.896648 325 200ft 0kts
29-Dec-21 18:33 46.973460 -122.896652 324 200ft 0kts
29-Dec-21 18:33 46.973463 -122.896655 325 200ft 0kts
29-Dec-21 18:34 46.973501 -122.896825 251 200ft 5kts
29-Dec-21 18:35 46.976067 -122.900213 339 195ft 1kts
29-Dec-21 18:36 46.976381 -122.900647 189 194ft 0kts
29-Dec-21 18:37 46.976381 -122.900647 189 194ft 0kts
29-Dec-21 18:38 46.976381 -122.900647 189 194ft 0kts
29-Dec-21 18:39 46.976381 -122.900647 189 194ft 0kts
29-Dec-21 18:40 46.976381 -122.900647 189 194ft 0kts
29-Dec-21 18:41 46.976147 -122.901248 285 194ft 0kts
29-Dec-21 18:42 46.968149 -122.904830 194 266ft 108kts
29-Dec-21 18:43 46.933275 -122.902793 141 1860ft 139kts
29-Dec-21 18:44 46.923154 -122.847767 60 3010ft 175kts
29-Dec-21 18:45 46.966916 -122.832119 29 3123ft 160kts
29-Dec-21 18:46 47.001790 -122.788557 24 3020ft 175kts
29-Dec-21 18:47 47.046746 -122.766128 23 3094ft 168kts
29-Dec-21 18:48 47.087177 -122.731071 38 3145ft 166kts
29-Dec-21 18:49 47.118450 -122.683325 80 3197ft 170kts
29-Dec-21 18:50 47.108610 -122.617172 76 3029ft 159kts
29-Dec-21 18:51 47.116686 -122.554893 94 2988ft 156kts
29-Dec-21 18:52 47.115660 -122.492671 85 2915ft 160kts
29-Dec-21 18:53 47.116925 -122.431022 80 3388ft 146kts
29-Dec-21 18:54 47.120113 -122.370111 94 2910ft 141kts
29-Dec-21 18:55 47.122438 -122.311240 85 3423ft 155kts
29-Dec-21 18:56 47.124619 -122.249667 77 2977ft 134kts
29-Dec-21 18:57 47.124875 -122.191050 78 3347ft 163kts
29-Dec-21 18:58 47.150000 -122.163223 300 2769ft 130kts
29-Dec-21 18:59 47.136194 -122.213435 226 3127ft 168kts
29-Dec-21 19:00 47.107130 -122.263886 229 3052ft 154kts
29-Dec-21 19:01 47.084285 -122.251474 64 2888ft 120kts
29-Dec-21 19:02 47.098421 -122.219332 52 2936ft 85kts
29-Dec-21 19:03 47.114148 -122.185212 53 2894ft 115kts
29-Dec-21 19:04 47.138719 -122.176531 348 2640ft 114kts
29-Dec-21 19:05 47.172381 -122.184481 354 2138ft 103kts
29-Dec-21 19:06 47.201837 -122.190265 349 2186ft 105kts
29-Dec-21 19:07 47.230849 -122.201707 348 2040ft 111kts
29-Dec-21 19:08 47.255940 -122.208709 351 1603ft 81kts
29-Dec-21 19:09 47.282029 -122.214962 343 1167ft 126kts
29-Dec-21 19:10 47.311495 -122.217461 14 1020ft 95kts
29-Dec-21 19:11 47.339703 -122.213057 5 906ft 102kts
29-Dec-21 19:12 47.341108 -122.226703 178 364ft 101kts
29-Dec-21 19:13 47.326900 -122.226093 91 65ft 0kts
29-Dec-21 19:14 47.326900 -122.226093 91 65ft 0kts
29-Dec-21 19:15 47.325087 -122.225574 181 65ft 16kts
29-Dec-21 19:16 47.322347 -122.225457 33 65ft 11kts
29-Dec-21 19:17 47.323023 -122.224989 270 65ft 8kts
29-Dec-21 19:18 47.323574 -122.224173 92 65ft 6kts
29-Dec-21 19:19 47.324478 -122.225662 12 65ft 10kts
29-Dec-21 19:20 47.327784 -122.225695 1 65ft 18kts
29-Dec-21 19:21 47.330779 -122.225678 356 65ft 6kts
29-Dec-21 19:22 47.333510 -122.225757 9 65ft 0kts
29-Dec-21 19:23 47.330455 -122.225736 175 65ft 0kts
29-Dec-21 19:24 47.327900 -122.224353 4 65ft 0kts

Navigation Log

Ident Type
Flight plan parsing failed, navigation log unavailable